createdAt,value
2022-09-10T00:01:17.226Z,26.80
2022-09-10T00:03:24.551Z,26.90
2022-09-10T00:05:28.915Z,26.80
2022-09-10T00:07:33.700Z,26.80
2022-09-10T00:09:40.592Z,26.80
2022-09-10T00:11:47.505Z,26.80
2022-09-10T00:13:53.832Z,26.80
2022-09-10T00:16:02.518Z,26.90
2022-09-10T00:18:07.213Z,26.90
2022-09-10T00:20:13.968Z,26.90
2022-09-10T00:22:19.080Z,26.80
2022-09-10T00:24:23.843Z,26.80
2022-09-10T00:26:29.941Z,26.80
2022-09-10T00:28:34.664Z,26.80
2022-09-10T00:30:47.655Z,26.70
2022-09-10T00:32:54.574Z,26.60
2022-09-10T00:35:01.057Z,26.70
2022-09-10T00:37:06.596Z,26.80
2022-09-10T00:39:14.119Z,26.80
2022-09-10T00:41:19.915Z,26.80
2022-09-10T00:43:24.579Z,26.80
2022-09-10T00:45:32.632Z,26.90
2022-09-10T00:47:42.486Z,26.90
2022-09-10T00:49:49.609Z,27.00
2022-09-10T00:51:54.372Z,27.00
2022-09-10T00:54:00.982Z,27.00
2022-09-10T00:56:06.345Z,27.10
2022-09-10T00:58:15.307Z,27.20
2022-09-10T01:00:20.901Z,27.30
2022-09-10T01:02:25.434Z,27.40
2022-09-10T01:04:32.354Z,27.40
2022-09-10T01:06:37.949Z,27.40
2022-09-10T01:08:42.747Z,27.40
2022-09-10T01:11:12.916Z,27.50
2022-09-10T01:13:50.388Z,27.60
2022-09-10T01:16:33.869Z,27.60
2022-09-10T01:18:58.696Z,27.50
2022-09-10T01:21:27.861Z,27.60
2022-09-10T01:24:02.874Z,27.80
2022-09-10T01:26:30.996Z,27.90
2022-09-10T01:29:03.870Z,28.00
2022-09-10T01:31:30.187Z,27.90
2022-09-10T01:33:38.861Z,27.90
2022-09-10T01:36:03.439Z,28.00
2022-09-10T01:38:15.524Z,28.10
2022-09-10T01:40:19.918Z,28.20
2022-09-10T01:42:29.884Z,28.20
2022-09-10T01:44:49.152Z,28.20
2022-09-10T01:47:01.361Z,28.30
2022-09-10T01:49:37.945Z,28.30
2022-09-10T01:52:12.579Z,28.30
2022-09-10T01:54:46.654Z,28.30
2022-09-10T01:57:15.275Z,28.40
2022-09-10T01:59:45.302Z,28.50
2022-09-10T02:01:53.248Z,28.50
2022-09-10T02:04:03.510Z,28.50
2022-09-10T02:06:10.504Z,28.60
2022-09-10T02:08:29.016Z,28.60
2022-09-10T02:10:35.654Z,28.70
2022-09-10T02:12:43.940Z,28.80
2022-09-10T02:15:00.482Z,28.80
2022-09-10T02:17:19.550Z,28.90
2022-09-10T02:19:23.924Z,28.90
2022-09-10T02:21:33.846Z,28.90
2022-09-10T02:23:57.280Z,28.90
2022-09-10T02:26:01.543Z,28.90
2022-09-10T02:28:06.807Z,29.00
2022-09-10T02:30:14.778Z,29.00
2022-09-10T02:32:19.104Z,29.00
2022-09-10T02:34:24.136Z,29.00
2022-09-10T02:36:34.969Z,29.10
2022-09-10T02:38:40.221Z,29.10
2022-09-10T02:40:49.194Z,29.20
2022-09-10T02:42:57.882Z,29.20
2022-09-10T02:45:02.945Z,29.30
2022-09-10T02:47:08.410Z,29.40
2022-09-10T02:49:17.279Z,29.40
2022-09-10T02:51:24.618Z,29.50
2022-09-10T02:53:28.914Z,29.50
2022-09-10T02:55:40.093Z,29.50
2022-09-10T02:57:44.811Z,29.50
2022-09-10T02:59:51.555Z,29.50
2022-09-10T03:01:56.717Z,29.50
2022-09-10T03:04:01.407Z,29.50
2022-09-10T03:06:08.182Z,29.50
2022-09-10T03:08:17.002Z,29.60
2022-09-10T03:10:24.777Z,29.60
2022-09-10T03:12:29.385Z,29.70
2022-09-10T03:14:36.925Z,29.80
2022-09-10T03:16:41.981Z,29.80
2022-09-10T03:18:46.555Z,29.80
2022-09-10T03:20:56.231Z,29.80
2022-09-10T03:23:00.459Z,29.90
2022-09-10T03:25:08.044Z,30.00
2022-09-10T03:27:19.573Z,30.00
2022-09-10T03:29:25.449Z,30.00
2022-09-10T03:31:30.214Z,30.00
2022-09-10T03:33:37.389Z,29.90
2022-09-10T03:35:42.089Z,29.90
2022-09-10T03:37:47.724Z,29.90
2022-09-10T03:39:56.359Z,29.90
2022-09-10T03:42:00.710Z,30.00
2022-09-10T03:44:06.656Z,30.00
2022-09-10T03:46:14.102Z,30.00
2022-09-10T03:48:21.566Z,30.10
2022-09-10T03:50:27.406Z,30.20
2022-09-10T03:52:31.963Z,30.30
2022-09-10T03:54:36.466Z,30.30
2022-09-10T03:56:41.176Z,30.30
2022-09-10T03:58:52.306Z,30.40
2022-09-10T04:00:58.808Z,30.40
2022-09-10T04:03:03.625Z,30.30
2022-09-10T04:05:09.449Z,30.30
2022-09-10T04:07:14.840Z,30.30
2022-09-10T04:09:19.589Z,30.30
2022-09-10T04:11:30.422Z,30.30
2022-09-10T04:13:35.787Z,30.40
2022-09-10T04:15:40.553Z,30.50
2022-09-10T04:17:50.087Z,30.50
2022-09-10T04:19:56.009Z,30.40
2022-09-10T04:22:01.023Z,30.40
2022-09-10T04:24:13.668Z,30.30
2022-09-10T04:26:20.938Z,30.40
2022-09-10T04:28:27.747Z,30.50
2022-09-10T04:30:36.614Z,30.70
2022-09-10T04:32:47.951Z,30.80
2022-09-10T04:34:52.670Z,30.70
2022-09-10T04:37:01.206Z,30.80
2022-09-10T04:39:06.068Z,30.90
2022-09-10T04:41:12.083Z,31.00
2022-09-10T04:43:22.089Z,31.00
2022-09-10T04:45:26.834Z,31.00
2022-09-10T04:47:32.534Z,31.00
2022-09-10T04:49:41.949Z,31.10
2022-09-10T04:51:47.169Z,31.20
2022-09-10T04:53:52.253Z,31.30
2022-09-10T04:56:04.080Z,31.30
2022-09-10T04:58:14.235Z,31.30
2022-09-10T05:00:21.730Z,31.40
2022-09-10T05:02:33.633Z,31.50
2022-09-10T05:04:38.720Z,31.60
2022-09-10T05:06:45.628Z,31.60
2022-09-10T05:08:55.137Z,31.50
2022-09-10T05:11:01.555Z,31.40
2022-09-10T05:13:07.702Z,31.50
2022-09-10T05:15:15.075Z,31.60
2022-09-10T05:17:19.314Z,31.70
2022-09-10T05:19:24.209Z,31.70
2022-09-10T05:21:41.816Z,31.80
2022-09-10T05:23:46.224Z,31.60
2022-09-10T05:25:51.323Z,31.70
2022-09-10T05:28:00.561Z,31.70
2022-09-10T05:30:05.967Z,31.70
2022-09-10T05:32:14.413Z,31.70
2022-09-10T05:34:23.578Z,31.80
2022-09-10T05:36:30.062Z,31.90
2022-09-10T05:38:38.112Z,31.90
2022-09-10T05:40:49.145Z,31.90
2022-09-10T05:42:54.417Z,31.90
2022-09-10T05:45:01.822Z,31.90
2022-09-10T05:47:11.581Z,31.90
2022-09-10T05:49:16.323Z,31.90
2022-09-10T05:51:21.428Z,31.90
2022-09-10T05:53:31.678Z,31.90
2022-09-10T05:55:36.256Z,32.10
2022-09-10T05:57:42.774Z,32.10
2022-09-10T05:59:55.454Z,32.20
2022-09-10T06:02:02.015Z,32.20
2022-09-10T06:04:09.271Z,32.20
2022-09-10T06:06:19.839Z,32.20
2022-09-10T06:08:32.625Z,32.20
2022-09-10T06:10:41.500Z,32.40
2022-09-10T06:12:52.002Z,32.40
2022-09-10T06:14:57.605Z,32.40
2022-09-10T06:17:02.325Z,32.50
2022-09-10T06:19:12.800Z,32.40
2022-09-10T06:21:18.917Z,32.40
2022-09-10T06:23:26.415Z,32.40
2022-09-10T06:25:35.589Z,32.40
2022-09-10T06:27:40.122Z,32.40
2022-09-10T06:29:45.225Z,32.40
2022-09-10T06:31:52.063Z,32.40
2022-09-10T06:33:56.417Z,32.30
2022-09-10T06:36:05.232Z,32.30
2022-09-10T06:38:10.348Z,32.30
2022-09-10T06:40:14.859Z,32.30
2022-09-10T06:42:20.608Z,32.30
2022-09-10T06:44:40.517Z,32.30
2022-09-10T06:49:20.038Z,32.30
2022-09-10T06:51:29.358Z,32.40
2022-09-10T06:53:34.710Z,32.30
2022-09-10T06:55:40.558Z,32.30
2022-09-10T06:57:48.967Z,32.20
2022-09-10T06:59:54.334Z,32.20
2022-09-10T07:01:59.400Z,32.10
2022-09-10T07:04:09.605Z,32.00
2022-09-10T07:06:18.022Z,32.00
2022-09-10T07:08:26.685Z,31.90
2022-09-10T07:10:37.143Z,31.90
2022-09-10T07:12:42.903Z,31.80
2022-09-10T07:14:47.959Z,31.80
2022-09-10T07:16:56.664Z,31.70
2022-09-10T07:19:04.554Z,31.60
2022-09-10T07:21:16.319Z,31.60
2022-09-10T07:23:25.870Z,31.60
2022-09-10T07:25:30.418Z,31.60
2022-09-10T07:27:41.388Z,31.50
2022-09-10T07:29:47.883Z,31.50
2022-09-10T07:31:56.063Z,31.40
2022-09-10T07:34:03.145Z,31.40
2022-09-10T07:36:13.122Z,31.40
2022-09-10T07:38:21.683Z,31.30
2022-09-10T07:40:28.759Z,31.20
2022-09-10T07:42:37.914Z,31.10
2022-09-10T07:44:42.502Z,31.10
2022-09-10T07:46:47.547Z,31.00
2022-09-10T07:49:03.021Z,31.00
2022-09-10T07:51:10.396Z,30.90
2022-09-10T07:53:15.196Z,30.90
2022-09-10T07:55:26.504Z,30.80
2022-09-10T07:57:32.603Z,30.80
2022-09-10T07:59:37.117Z,30.80
2022-09-10T08:01:46.404Z,30.80
2022-09-10T08:03:57.400Z,30.60
2022-09-10T08:06:03.951Z,30.60
2022-09-10T08:08:12.796Z,30.70
2022-09-10T08:10:17.625Z,30.60
2022-09-10T08:12:23.114Z,30.50
2022-09-10T08:14:33.204Z,30.50
2022-09-10T08:16:41.313Z,30.40
2022-09-10T08:18:50.759Z,30.30
2022-09-10T08:20:57.842Z,30.30
2022-09-10T08:23:04.389Z,30.30
2022-09-10T08:25:09.366Z,30.20
2022-09-10T08:27:19.196Z,30.10
2022-09-10T08:29:25.555Z,30.00
2022-09-10T08:31:30.960Z,29.90
2022-09-10T08:33:54.968Z,29.70
2022-09-10T08:36:00.861Z,29.50
2022-09-10T08:38:05.441Z,29.50
2022-09-10T08:40:16.647Z,29.20
2022-09-10T08:42:43.984Z,29.20
2022-09-10T08:44:57.355Z,29.10
2022-09-10T08:47:37.311Z,29.00
2022-09-10T08:49:53.589Z,28.90
2022-09-10T08:52:20.976Z,29.00
2022-09-10T08:54:34.182Z,29.00
2022-09-10T08:56:38.571Z,29.00
2022-09-10T08:59:04.286Z,29.10
2022-09-10T09:01:18.714Z,29.10
2022-09-10T09:03:37.061Z,29.00
2022-09-10T09:05:49.472Z,29.00
2022-09-10T09:07:56.365Z,29.00
2022-09-10T09:10:02.700Z,28.90
2022-09-10T09:12:32.193Z,28.80
2022-09-10T09:14:59.240Z,28.90
2022-09-10T09:17:37.740Z,28.90
2022-09-10T09:20:09.520Z,28.80
2022-09-10T09:22:39.785Z,28.70
2022-09-10T09:25:28.658Z,28.60
2022-09-10T09:27:36.349Z,28.60
2022-09-10T09:30:07.397Z,28.50
2022-09-10T09:32:17.241Z,28.60
2022-09-10T09:34:46.110Z,28.60
2022-09-10T09:36:55.511Z,28.70
2022-09-10T09:39:03.253Z,28.50
2022-09-10T09:41:36.542Z,28.50
2022-09-10T09:44:14.853Z,28.50
2022-09-10T09:46:20.847Z,28.40
2022-09-10T09:48:37.372Z,28.30
2022-09-10T09:50:44.532Z,28.20
2022-09-10T09:52:55.144Z,27.90
2022-09-10T09:55:14.917Z,28.00
2022-09-10T09:57:23.599Z,28.20
2022-09-10T09:59:31.055Z,28.30
2022-09-10T10:01:35.697Z,28.40
2022-09-10T10:04:02.121Z,28.40
2022-09-10T10:06:11.000Z,28.30
2022-09-10T10:08:29.938Z,28.30
2022-09-10T10:10:34.646Z,28.40
2022-09-10T10:12:39.039Z,28.40
2022-09-10T10:14:44.443Z,28.30
2022-09-10T10:17:00.375Z,28.30
2022-09-10T10:19:05.052Z,28.20
2022-09-10T10:21:17.439Z,28.10
2022-09-10T10:23:40.108Z,27.90
2022-09-10T10:25:46.625Z,27.90
2022-09-10T10:27:52.385Z,28.00
2022-09-10T10:30:26.053Z,28.10
2022-09-10T10:32:58.337Z,28.10
2022-09-10T10:35:34.742Z,27.90
2022-09-10T10:38:11.887Z,27.90
2022-09-10T10:40:46.531Z,27.80
2022-09-10T10:43:07.597Z,27.90
2022-09-10T10:45:43.848Z,28.00
2022-09-10T10:48:07.365Z,28.10
2022-09-10T10:50:23.465Z,28.30
2022-09-10T10:52:48.765Z,28.30
2022-09-10T10:55:25.225Z,28.20
2022-09-10T10:58:08.698Z,28.20
2022-09-10T11:00:21.286Z,28.20
2022-09-10T11:02:52.825Z,28.20
2022-09-10T11:04:59.439Z,28.20
2022-09-10T11:07:09.429Z,28.20
2022-09-10T11:09:34.690Z,28.20
2022-09-10T11:12:03.689Z,28.20
2022-09-10T11:14:33.779Z,28.20
2022-09-10T11:16:45.004Z,28.20
2022-09-10T11:19:03.922Z,28.30
2022-09-10T11:21:30.889Z,28.20
2022-09-10T11:24:08.457Z,28.30
2022-09-10T11:26:37.420Z,28.30
2022-09-10T11:29:04.711Z,28.30
2022-09-10T11:31:17.868Z,28.30
2022-09-10T11:33:47.940Z,28.30
2022-09-10T11:36:05.546Z,28.30
2022-09-10T11:38:28.006Z,28.30
2022-09-10T11:40:45.466Z,28.30
2022-09-10T11:42:54.699Z,28.20
2022-09-10T11:45:07.032Z,28.20
2022-09-10T11:47:34.243Z,28.20
2022-09-10T11:50:02.715Z,28.20
2022-09-10T11:52:07.066Z,28.20
2022-09-10T11:54:17.568Z,28.20
2022-09-10T11:57:03.987Z,28.20
2022-09-10T11:59:45.161Z,28.20
2022-09-10T12:02:17.461Z,28.20
2022-09-10T12:04:47.537Z,28.10
2022-09-10T12:07:17.345Z,28.10
2022-09-10T12:09:36.738Z,28.00
2022-09-10T12:12:07.803Z,28.00
2022-09-10T12:14:17.913Z,28.10
2022-09-10T12:16:50.023Z,28.00
2022-09-10T12:18:55.527Z,28.00
2022-09-10T12:21:03.392Z,28.00
2022-09-10T12:23:08.463Z,28.00
2022-09-10T12:25:35.767Z,28.00
2022-09-10T12:27:55.889Z,28.00
2022-09-10T12:30:00.807Z,28.00
2022-09-10T12:32:29.658Z,28.00
2022-09-10T12:34:34.084Z,28.00
2022-09-10T12:37:16.832Z,28.10
2022-09-10T12:39:31.470Z,28.10
2022-09-10T12:41:56.414Z,28.00
2022-09-10T12:44:01.848Z,28.00
2022-09-10T12:46:19.669Z,28.00
2022-09-10T12:48:26.950Z,28.00
2022-09-10T12:50:34.053Z,28.00
2022-09-10T12:53:14.261Z,28.00
2022-09-10T12:55:44.032Z,28.00
2022-09-10T12:58:01.927Z,28.00
2022-09-10T13:00:26.894Z,28.00
2022-09-10T13:02:36.973Z,28.00
2022-09-10T13:04:43.105Z,28.00
2022-09-10T13:06:48.878Z,28.00
2022-09-10T13:08:56.400Z,28.00
2022-09-10T13:11:22.284Z,28.00
2022-09-10T13:13:46.756Z,27.90
2022-09-10T13:15:55.012Z,27.80
2022-09-10T13:18:27.020Z,27.90
2022-09-10T13:20:33.400Z,27.90
2022-09-10T13:23:14.088Z,27.90
2022-09-10T13:25:37.723Z,27.90
2022-09-10T13:27:42.720Z,27.90
2022-09-10T13:29:53.145Z,27.80
2022-09-10T13:32:03.108Z,27.90
2022-09-10T13:34:47.882Z,27.90
2022-09-10T13:37:24.334Z,27.90
2022-09-10T13:40:08.063Z,27.90
2022-09-10T13:42:37.902Z,27.80
2022-09-10T13:45:00.812Z,27.70
2022-09-10T13:47:15.264Z,27.70
2022-09-10T13:49:50.269Z,27.70
2022-09-10T13:51:56.061Z,27.70
2022-09-10T13:54:08.456Z,27.70
2022-09-10T13:56:21.067Z,27.70
2022-09-10T13:58:29.478Z,27.60
2022-09-10T14:00:54.393Z,27.60
2022-09-10T14:03:00.813Z,27.60
2022-09-10T14:05:05.439Z,27.60
2022-09-10T14:07:18.727Z,27.60
2022-09-10T14:09:25.379Z,27.60
2022-09-10T14:11:31.302Z,27.50
2022-09-10T14:14:00.783Z,27.40
2022-09-10T14:16:10.242Z,27.40
2022-09-10T14:18:15.019Z,27.20
2022-09-10T14:20:27.792Z,27.10
2022-09-10T14:22:35.190Z,27.20
2022-09-10T14:25:05.404Z,27.20
2022-09-10T14:27:31.997Z,27.20
2022-09-10T14:29:40.429Z,27.10
2022-09-10T14:31:45.236Z,27.30
2022-09-10T14:33:49.534Z,27.40
2022-09-10T14:35:58.613Z,27.40
2022-09-10T14:38:06.015Z,27.30
2022-09-10T14:40:22.002Z,27.20
2022-09-10T14:42:32.833Z,27.20
2022-09-10T14:44:43.967Z,27.30
2022-09-10T14:47:14.119Z,27.30
2022-09-10T14:49:22.419Z,27.30
2022-09-10T14:51:33.504Z,27.30
2022-09-10T14:53:38.510Z,27.20
2022-09-10T14:55:42.822Z,27.20
2022-09-10T14:57:47.169Z,27.00
2022-09-10T14:59:54.169Z,27.10
2022-09-10T15:02:04.158Z,27.10
2022-09-10T15:04:10.342Z,27.20
2022-09-10T15:06:14.979Z,27.20
2022-09-10T15:08:23.916Z,27.20
2022-09-10T15:10:28.431Z,27.00
2022-09-10T15:12:33.086Z,27.10
2022-09-10T15:14:41.209Z,27.20
2022-09-10T15:16:46.069Z,27.20
2022-09-10T15:18:51.273Z,27.10
2022-09-10T15:20:59.533Z,27.20
2022-09-10T15:23:04.349Z,27.10
2022-09-10T15:25:10.554Z,27.20
2022-09-10T15:27:20.093Z,27.20
2022-09-10T15:29:24.809Z,27.10
2022-09-10T15:31:32.755Z,27.00
2022-09-10T15:33:39.266Z,27.00
2022-09-10T15:35:44.640Z,27.00
2022-09-10T15:37:52.258Z,27.00
2022-09-10T15:40:00.580Z,27.00
2022-09-10T15:42:05.537Z,26.90
2022-09-10T15:44:12.491Z,26.80
2022-09-10T15:46:19.666Z,26.70
2022-09-10T15:48:24.257Z,26.80
2022-09-10T15:50:30.556Z,26.90
2022-09-10T15:52:39.873Z,27.00
2022-09-10T15:54:46.027Z,27.10
2022-09-10T15:56:52.453Z,27.10
2022-09-10T15:59:00.026Z,27.10
2022-09-10T16:01:13.696Z,27.10
2022-09-10T16:03:21.611Z,27.00
2022-09-10T16:05:28.074Z,27.00
2022-09-10T16:07:32.940Z,27.00
2022-09-10T16:09:39.361Z,27.00
2022-09-10T16:11:46.196Z,26.90
2022-09-10T16:13:51.812Z,26.90
2022-09-10T16:16:05.470Z,26.80
2022-09-10T16:18:12.181Z,26.90
2022-09-10T16:20:16.646Z,26.90
2022-09-10T16:22:23.106Z,26.80
2022-09-10T16:24:29.631Z,26.80
2022-09-10T16:26:36.391Z,26.90
2022-09-10T16:28:42.047Z,26.90
2022-09-10T16:30:49.415Z,26.70
2022-09-10T16:32:53.922Z,26.80
2022-09-10T16:35:01.423Z,26.70
2022-09-10T16:37:08.252Z,26.80
2022-09-10T16:39:14.322Z,26.70
2022-09-10T16:41:20.520Z,26.70
2022-09-10T16:43:25.239Z,26.70
2022-09-10T16:45:31.265Z,26.80
2022-09-10T16:47:39.045Z,26.60
2022-09-10T16:49:45.553Z,26.70
2022-09-10T16:51:53.129Z,26.70
2022-09-10T16:54:03.334Z,26.70
2022-09-10T16:56:13.908Z,26.80
2022-09-10T16:58:24.469Z,26.60
2022-09-10T17:00:30.991Z,26.60
2022-09-10T17:02:38.308Z,26.50
2022-09-10T17:04:42.652Z,26.70
2022-09-10T17:06:49.075Z,26.70
2022-09-10T17:08:58.235Z,26.60
2022-09-10T17:11:03.876Z,26.70
2022-09-10T17:13:12.249Z,26.60
2022-09-10T17:15:24.490Z,26.70
2022-09-10T17:17:30.793Z,26.60
2022-09-10T17:19:40.004Z,26.60
2022-09-10T17:21:46.440Z,26.50
2022-09-10T17:23:51.564Z,26.50
2022-09-10T17:25:58.436Z,26.50
2022-09-10T17:28:04.040Z,26.50
2022-09-10T17:30:11.044Z,26.40
2022-09-10T17:32:17.909Z,26.40
2022-09-10T17:34:25.453Z,26.40
2022-09-10T17:36:30.135Z,26.40
2022-09-10T17:38:36.634Z,26.40
2022-09-10T17:40:43.204Z,26.40
2022-09-10T17:42:49.347Z,26.40
2022-09-10T17:44:56.190Z,26.50
2022-09-10T17:47:01.896Z,26.40
2022-09-10T17:49:08.202Z,26.40
2022-09-10T17:51:22.197Z,26.40
2022-09-10T17:53:28.264Z,26.40
2022-09-10T17:55:35.490Z,26.40
2022-09-10T17:57:41.738Z,26.50
2022-09-10T17:59:49.187Z,26.50
2022-09-10T18:01:53.796Z,26.50
2022-09-10T18:04:00.333Z,26.40
2022-09-10T18:06:08.516Z,26.40
2022-09-10T18:08:13.188Z,26.30
2022-09-10T18:10:19.572Z,26.40
2022-09-10T18:12:26.411Z,26.30
2022-09-10T18:14:31.229Z,26.20
2022-09-10T18:16:40.705Z,26.20
2022-09-10T18:19:14.064Z,26.30
2022-09-10T18:21:26.203Z,26.40
2022-09-10T18:23:32.533Z,26.40
2022-09-10T18:25:39.155Z,26.40
2022-09-10T18:27:44.324Z,26.30
2022-09-10T18:29:50.644Z,26.20
2022-09-10T18:31:59.597Z,26.10
2022-09-10T18:34:04.073Z,26.20
2022-09-10T18:36:18.072Z,26.10
2022-09-10T18:38:22.503Z,26.20
2022-09-10T18:40:27.003Z,26.20
2022-09-10T18:42:33.574Z,26.20
2022-09-10T18:44:40.277Z,26.30
2022-09-10T18:46:45.811Z,26.30
2022-09-10T18:48:52.583Z,26.20
2022-09-10T18:50:59.334Z,26.30
2022-09-10T18:53:03.507Z,26.40
2022-09-10T18:55:10.130Z,26.30
2022-09-10T18:57:16.526Z,26.30
2022-09-10T18:59:22.702Z,26.20
2022-09-10T19:01:35.622Z,26.00
2022-09-10T19:03:51.335Z,26.20
2022-09-10T19:05:55.912Z,26.30
2022-09-10T19:08:02.261Z,26.20
2022-09-10T19:10:10.124Z,26.30
2022-09-10T19:12:19.020Z,26.30
2022-09-10T19:14:27.800Z,26.40
2022-09-10T19:16:34.835Z,26.40
2022-09-10T19:18:39.470Z,26.40
2022-09-10T19:20:47.710Z,26.40
2022-09-10T19:22:54.467Z,26.40
2022-09-10T19:24:58.796Z,26.40
2022-09-10T19:27:05.292Z,26.50
2022-09-10T19:29:11.627Z,26.50
2022-09-10T19:31:17.865Z,26.40
2022-09-10T19:33:24.206Z,26.40
2022-09-10T19:35:30.741Z,26.30
2022-09-10T19:37:35.102Z,26.30
2022-09-10T19:39:41.896Z,26.30
2022-09-10T19:41:51.336Z,26.30
2022-09-10T19:43:57.304Z,26.30
2022-09-10T19:46:05.184Z,26.40
2022-09-10T19:48:12.544Z,26.30
2022-09-10T19:50:20.305Z,26.20
2022-09-10T19:52:29.183Z,26.20
2022-09-10T19:54:36.149Z,26.20
2022-09-10T19:56:42.464Z,26.20
2022-09-10T19:58:47.154Z,26.20
2022-09-10T20:00:51.913Z,26.30
2022-09-10T20:02:56.215Z,26.40
2022-09-10T20:05:03.436Z,26.30
2022-09-10T20:07:09.880Z,26.30
2022-09-10T20:09:14.473Z,26.30
2022-09-10T20:11:25.021Z,26.10
2022-09-10T20:13:31.583Z,26.00
2022-09-10T20:15:43.586Z,26.10
2022-09-10T20:17:52.520Z,26.10
2022-09-10T20:19:59.437Z,26.20
2022-09-10T20:22:06.609Z,26.10
2022-09-10T20:24:13.095Z,26.10
2022-09-10T20:26:23.592Z,26.20
2022-09-10T20:28:27.932Z,26.20
2022-09-10T20:30:35.033Z,26.30
2022-09-10T20:32:40.813Z,26.30
2022-09-10T20:34:45.468Z,26.30
2022-09-10T20:36:54.957Z,26.20
2022-09-10T20:39:02.338Z,26.10
2022-09-10T20:41:07.169Z,26.10
2022-09-10T20:43:13.945Z,26.10
2022-09-10T20:45:21.308Z,26.10
2022-09-10T20:47:28.919Z,26.00
2022-09-10T20:49:35.556Z,26.10
2022-09-10T20:51:41.615Z,26.00
2022-09-10T20:53:46.328Z,26.10
2022-09-10T20:55:51.163Z,26.20
2022-09-10T20:57:56.809Z,26.00
2022-09-10T21:00:01.294Z,26.00
2022-09-10T21:02:09.436Z,26.00
2022-09-10T21:04:16.978Z,26.10
2022-09-10T21:06:22.575Z,26.20
2022-09-10T21:08:32.358Z,26.00
2022-09-10T21:10:40.549Z,26.20
2022-09-10T21:12:45.345Z,26.00
2022-09-10T21:14:51.736Z,26.10
2022-09-10T21:16:58.148Z,26.20
2022-09-10T21:19:04.266Z,26.30
2022-09-10T21:21:13.116Z,26.40
2022-09-10T21:23:22.572Z,26.40
2022-09-10T21:25:29.091Z,26.50
2022-09-10T21:27:35.587Z,26.40
2022-09-10T21:29:42.138Z,26.40
2022-09-10T21:31:47.728Z,26.40
2022-09-10T21:33:52.166Z,26.40
2022-09-10T21:36:10.634Z,26.40
2022-09-10T21:38:15.293Z,26.30
2022-09-10T21:40:21.627Z,26.20
2022-09-10T21:42:26.296Z,26.20
2022-09-10T21:44:30.595Z,26.20
2022-09-10T21:46:37.260Z,26.30
2022-09-10T21:48:44.384Z,26.40
2022-09-10T21:51:01.346Z,26.40
2022-09-10T21:53:07.612Z,26.30
2022-09-10T21:55:12.345Z,26.40
2022-09-10T21:57:16.690Z,26.30
2022-09-10T21:59:23.934Z,26.40
2022-09-10T22:01:32.118Z,26.40
2022-09-10T22:03:37.200Z,26.40
2022-09-10T22:05:44.018Z,26.40
2022-09-10T22:07:48.789Z,26.40
2022-09-10T22:09:53.070Z,26.50
2022-09-10T22:12:00.244Z,26.40
2022-09-10T22:14:18.467Z,26.40
2022-09-10T22:16:23.754Z,26.40
2022-09-10T22:18:30.639Z,26.40
2022-09-10T22:20:35.833Z,26.40
2022-09-10T22:22:40.476Z,26.40
2022-09-10T22:24:46.671Z,26.30
2022-09-10T22:26:51.156Z,26.30
2022-09-10T22:28:57.145Z,26.20
2022-09-10T22:31:18.092Z,26.30
2022-09-10T22:33:24.641Z,26.20
2022-09-10T22:35:28.985Z,26.20
2022-09-10T22:37:36.678Z,26.20
2022-09-10T22:39:41.659Z,26.20
2022-09-10T22:41:50.567Z,26.20
2022-09-10T22:43:58.509Z,26.30
2022-09-10T22:46:15.922Z,26.30
2022-09-10T22:48:20.496Z,26.20
2022-09-10T22:50:27.955Z,26.20
2022-09-10T22:52:37.453Z,26.20
2022-09-10T22:54:41.975Z,26.20
2022-09-10T22:56:48.198Z,26.20
2022-09-10T22:58:55.482Z,26.20
2022-09-10T23:01:05.398Z,26.10
2022-09-10T23:03:12.578Z,26.00
2022-09-10T23:05:19.807Z,26.10
2022-09-10T23:07:24.716Z,26.00
2022-09-10T23:09:31.279Z,26.00
2022-09-10T23:11:37.986Z,26.00
2022-09-10T23:13:42.952Z,26.00
2022-09-10T23:15:51.471Z,26.00
2022-09-10T23:17:58.916Z,26.00
2022-09-10T23:20:13.390Z,26.00
2022-09-10T23:22:25.940Z,26.00
2022-09-10T23:24:31.880Z,26.10
2022-09-10T23:26:36.289Z,26.10
2022-09-10T23:28:45.801Z,26.10
2022-09-10T23:30:50.284Z,26.10
2022-09-10T23:32:56.783Z,26.10
2022-09-10T23:35:03.761Z,26.20
2022-09-10T23:37:15.717Z,26.20
2022-09-10T23:39:27.239Z,26.20
2022-09-10T23:41:33.809Z,26.20
2022-09-10T23:43:39.941Z,26.20
2022-09-10T23:45:48.481Z,26.20
2022-09-10T23:47:59.686Z,26.20
2022-09-10T23:50:11.044Z,26.20
2022-09-10T23:52:16.378Z,26.10
2022-09-10T23:54:22.652Z,26.10
2022-09-10T23:56:31.667Z,26.20
2022-09-10T23:58:36.495Z,26.20
